Terminal Aerodrome Forecast
Issued by NWS Caribou, ME

Home | Current Version | Previous Version | Text Only | Print | Product List | Glossary On
Versions: 1 2 3 4 5 6 7 8 9 10 11 12 13
000
FTUS41 KCAR 012320
TAFCAR
TAF
KCAR 012320Z 0200/0224 18010KT P6SM OVC090
     FM020500 18006KT 4SM -SN SCT025 OVC045
     FM020900 16005KT 2SM -SN BR OVC015
     FM021200 27010KT 6SM -SN OVC015
     FM021600 30012G22KT P6SM VCSH OVC030=

USA.gov is the U.S. government's official web portal to all federal, state and local government web resources and services.